Time;durP1;ratioP1;P1;durP2;ratioP2;P2;SDS_P1;SDS_P2;PMS_P1;PMS_P2;Temp;Humidity;BMP_temperature;BMP_pressure;BME280_temperature;BME280_humidity;BME280_pressure;Samples;Min_cycle;Max_cycle;Signal;HPM_P1;HPM_P2
2023/05/18 00:02:14;;;;;;;5.70;2.87;;;;;;;;;;5103882;28;20506;-70
2023/05/18 00:04:51;;;;;;;4.80;2.40;;;;;;;;;;5102693;28;20436;-71
2023/05/18 00:07:21;;;;;;;6.00;2.70;;;;;;;;;;5093986;28;20460;-69
2023/05/18 00:09:54;;;;;;;8.13;2.90;;;;;;;;;;5093452;28;20974;-70
2023/05/18 00:12:23;;;;;;;7.90;2.30;;;;;;;;;;5081202;28;20445;-69
2023/05/18 00:14:55;;;;;;;8.63;2.90;;;;;;;;;;5080778;28;20752;-69
2023/05/18 00:17:28;;;;;;;6.30;2.50;;;;;;;;;;5081078;28;20558;-70
2023/05/18 00:20:09;;;;;;;11.53;2.90;;;;;;;;;;5080733;28;20461;-70
2023/05/18 00:22:43;;;;;;;3.53;2.53;;;;;;;;;;5079924;28;20579;-69
2023/05/18 00:25:11;;;;;;;8.47;3.13;;;;;;;;;;5080003;28;20445;-70
2023/05/18 00:27:40;;;;;;;7.13;3.37;;;;;;;;;;5101607;28;20459;-71
2023/05/18 00:30:11;;;;;;;4.53;2.60;;;;;;;;;;5101047;28;20436;-70
2023/05/18 00:33:00;;;;;;;7.13;3.47;;;;;;;;;;5099511;28;20452;-70
2023/05/18 00:35:36;;;;;;;6.93;3.20;;;;;;;;;;5100324;28;20471;-68
2023/05/18 00:38:10;;;;;;;11.40;2.50;;;;;;;;;;5099181;28;20471;-69
2023/05/18 00:40:41;;;;;;;6.53;2.60;;;;;;;;;;5100604;28;20509;-70
2023/05/18 00:43:10;;;;;;;7.87;3.43;;;;;;;;;;5101875;28;20505;-70
2023/05/18 00:45:47;;;;;;;9.37;3.07;;;;;;;;;;5100171;28;20445;-70
2023/05/18 00:48:17;;;;;;;5.57;2.30;;;;;;;;;;5101334;28;20511;-70
2023/05/18 00:50:58;;;;;;;7.97;2.60;;;;;;;;;;5099505;28;20524;-70
2023/05/18 00:53:31;;;;;;;7.83;2.67;;;;;;;;;;5100566;28;20444;-70
2023/05/18 00:56:02;;;;;;;8.27;2.70;;;;;;;;;;5088851;28;21041;-71
2023/05/18 00:58:31;;;;;;;5.93;2.20;;;;;;;;;;5098290;28;20668;-69
2023/05/18 01:01:01;;;;;;;15.37;3.77;;;;;;;;;;5099453;28;20464;-69
2023/05/18 01:03:33;;;;;;;8.40;3.50;;;;;;;;;;5098765;28;20605;-70
2023/05/18 01:06:11;;;;;;;12.40;3.10;;;;;;;;;;5099717;28;20549;-70
2023/05/18 01:08:40;;;;;;;6.13;2.70;;;;;;;;;;5098310;28;21073;-70
2023/05/18 01:11:12;;;;;;;8.60;2.53;;;;;;;;;;5099652;28;20447;-69
2023/05/18 01:13:43;;;;;;;8.83;1.77;;;;;;;;;;5097172;28;20912;-70
2023/05/18 01:16:14;;;;;;;7.77;2.43;;;;;;;;;;5100211;28;20871;-70
2023/05/18 01:18:47;;;;;;;5.30;2.23;;;;;;;;;;5098877;28;20502;-70
2023/05/18 01:21:25;;;;;;;3.17;1.70;;;;;;;;;;5100996;28;20452;-70
2023/05/18 01:24:07;;;;;;;5.67;2.07;;;;;;;;;;5099621;28;20468;-69
2023/05/18 01:26:44;;;;;;;8.27;1.77;;;;;;;;;;5100507;28;20511;-70
2023/05/18 01:29:17;;;;;;;6.77;2.10;;;;;;;;;;5098227;28;20471;-70
2023/05/18 01:31:45;;;;;;;6.67;2.50;;;;;;;;;;5098033;28;20517;-70
2023/05/18 01:34:12;;;;;;;5.13;1.80;;;;;;;;;;5093099;28;20805;-70
2023/05/18 01:36:39;;;;;;;6.20;2.00;;;;;;;;;;5090201;28;20452;-70
2023/05/18 01:39:07;;;;;;;5.37;2.00;;;;;;;;;;5099986;28;20510;-71
2023/05/18 01:41:38;;;;;;;5.83;1.87;;;;;;;;;;5099834;28;20467;-70
2023/05/18 01:44:11;;;;;;;4.30;1.60;;;;;;;;;;5100159;28;20525;-69
2023/05/18 01:46:43;;;;;;;4.70;1.87;;;;;;;;;;5096537;28;20530;-71
2023/05/18 01:49:14;;;;;;;7.33;2.40;;;;;;;;;;5096204;28;20555;-69
2023/05/18 01:51:45;;;;;;;4.70;2.00;;;;;;;;;;5096849;28;20444;-69
2023/05/18 01:54:13;;;;;;;9.30;1.67;;;;;;;;;;5105734;28;20486;-69
2023/05/18 01:56:46;;;;;;;4.73;1.47;;;;;;;;;;5119577;28;20473;-70
2023/05/18 01:59:14;;;;;;;7.80;1.83;;;;;;;;;;5118962;28;20861;-70
2023/05/18 02:01:43;;;;;;;5.00;1.53;;;;;;;;;;5120183;28;20455;-70
2023/05/18 02:04:11;;;;;;;11.00;1.67;;;;;;;;;;5120676;28;20474;-70
2023/05/18 02:06:39;;;;;;;11.40;1.70;;;;;;;;;;5120006;28;20554;-70
2023/05/18 02:09:07;;;;;;;6.00;1.90;;;;;;;;;;5121152;28;20451;-70
2023/05/18 02:11:40;;;;;;;7.60;2.03;;;;;;;;;;5120945;28;20454;-70
2023/05/18 02:14:09;;;;;;;5.03;1.70;;;;;;;;;;5119690;28;20477;-70
2023/05/18 02:16:37;;;;;;;2.83;1.20;;;;;;;;;;5120543;28;20877;-70
2023/05/18 02:19:04;;;;;;;3.17;1.50;;;;;;;;;;5121084;28;20489;-71
2023/05/18 02:21:33;;;;;;;4.33;1.57;;;;;;;;;;5121026;28;20502;-71
2023/05/18 02:24:03;;;;;;;4.90;1.90;;;;;;;;;;5121017;28;20447;-69
2023/05/18 02:26:36;;;;;;;5.00;1.57;;;;;;;;;;5120315;28;20520;-70
2023/05/18 02:29:08;;;;;;;11.90;1.37;;;;;;;;;;5120728;28;20478;-70
2023/05/18 02:31:37;;;;;;;6.37;2.30;;;;;;;;;;5120711;28;20443;-72
2023/05/18 02:34:04;;;;;;;5.57;1.97;;;;;;;;;;5120232;28;20791;-70
2023/05/18 02:36:35;;;;;;;10.90;1.40;;;;;;;;;;5118958;28;20451;-69
2023/05/18 02:39:07;;;;;;;8.70;1.40;;;;;;;;;;5120471;28;20465;-70
2023/05/18 02:41:35;;;;;;;4.77;1.50;;;;;;;;;;5118868;28;20665;-69
2023/05/18 02:44:02;;;;;;;4.80;1.63;;;;;;;;;;5121169;28;20494;-69
2023/05/18 02:46:30;;;;;;;6.43;2.07;;;;;;;;;;5116097;28;20789;-70
2023/05/18 02:49:00;;;;;;;14.93;3.53;;;;;;;;;;5098133;28;20463;-70
2023/05/18 02:51:31;;;;;;;4.10;1.57;;;;;;;;;;5099949;28;20474;-70
2023/05/18 02:53:58;;;;;;;3.43;1.37;;;;;;;;;;5096970;28;20495;-70
2023/05/18 02:56:27;;;;;;;5.23;1.50;;;;;;;;;;5096582;28;20456;-70
2023/05/18 02:58:56;;;;;;;4.10;1.43;;;;;;;;;;5097843;28;20872;-69
2023/05/18 03:01:25;;;;;;;7.17;2.20;;;;;;;;;;5103930;28;20451;-69
2023/05/18 03:03:57;;;;;;;6.33;1.40;;;;;;;;;;5101244;28;20570;-69
2023/05/18 03:06:29;;;;;;;6.33;2.33;;;;;;;;;;5103882;28;20456;-70
2023/05/18 03:08:57;;;;;;;9.20;3.60;;;;;;;;;;5102769;28;20483;-70
2023/05/18 03:11:28;;;;;;;4.60;1.47;;;;;;;;;;5103457;28;20456;-70
2023/05/18 03:13:55;;;;;;;7.40;1.30;;;;;;;;;;5105755;28;20477;-70
2023/05/18 03:16:27;;;;;;;5.30;2.10;;;;;;;;;;5104975;28;20478;-71
2023/05/18 03:18:57;;;;;;;10.10;1.50;;;;;;;;;;5103842;28;20817;-70
2023/05/18 03:21:32;;;;;;;6.33;1.93;;;;;;;;;;5104657;28;21067;-68
2023/05/18 03:24:00;;;;;;;5.67;1.50;;;;;;;;;;5103673;28;20689;-69
2023/05/18 03:26:32;;;;;;;10.00;2.30;;;;;;;;;;5102941;28;20519;-69
2023/05/18 03:29:00;;;;;;;7.40;1.50;;;;;;;;;;5102772;28;20550;-69
2023/05/18 03:31:28;;;;;;;6.47;2.37;;;;;;;;;;5105417;28;20562;-69
2023/05/18 03:33:59;;;;;;;4.27;1.43;;;;;;;;;;5104273;28;20464;-69
2023/05/18 03:36:28;;;;;;;4.80;1.73;;;;;;;;;;5104674;28;20467;-69
2023/05/18 03:38:59;;;;;;;9.27;2.07;;;;;;;;;;5105054;28;20701;-69
2023/05/18 03:41:28;;;;;;;10.07;1.83;;;;;;;;;;5098815;28;20535;-70
2023/05/18 03:43:55;;;;;;;7.00;2.07;;;;;;;;;;5097253;28;20484;-71
2023/05/18 03:46:23;;;;;;;6.10;1.73;;;;;;;;;;5105382;28;20554;-69
2023/05/18 03:48:52;;;;;;;3.00;1.40;;;;;;;;;;5108741;28;20458;-71
2023/05/18 03:51:20;;;;;;;5.30;2.07;;;;;;;;;;5109086;28;20460;-70
2023/05/18 03:53:49;;;;;;;5.80;1.70;;;;;;;;;;5107145;28;20699;-70
2023/05/18 03:56:16;;;;;;;3.97;1.50;;;;;;;;;;5125502;27;20451;-70
2023/05/18 03:58:44;;;;;;;5.13;1.60;;;;;;;;;;5106774;27;20443;-69
